<?xml version="1.0" encoding="UTF-8" standalone="no" ?>
<gpx xmlns="http://www.topografix.com/GPX/1/1" xmlns:xsi="http://www.w3.org/2001/XMLSchema-instance" xsi:schemaLocation="http://www.topografix.com/GPX/1/1 http://www.topografix.com/GPX/1/1/gpx.xsd" version="1.1" creator="VisuGPX - https://www.visugpx.com">
  <metadata>
    <name>Redon_Chateaulin</name>
    <desc><![CDATA[Randonnée cyclotouriste de Redon à Châteaulin par le chemin de halage du canal de Nantes à Brest avec quelques échappées vers Rostrenen, Carhaix et Pleyben.]]></desc>
  </metadata>
  <trk>
    <name><![CDATA[ACTIVE LOG 013]]></name>
    <trkseg>
      <trkpt lat="48.27613" lon="-3.57465">
        <ele>149.1416015625</ele>
        <time>2012-04-19T07:37:35Z</time>
      </trkpt>
      <trkpt lat="48.27617" lon="-3.57472">
        <ele>151.06420898438</ele>
        <time>2012-04-19T07:54:55Z</time>
      </trkpt>
      <trkpt lat="48.27616" lon="-3.57471">
        <ele>151.06420898438</ele>
        <time>2012-04-19T07:55:12Z</time>
      </trkpt>
      <trkpt lat="48.27623" lon="-3.57424">
        <ele>152.50634765625</ele>
        <time>2012-04-19T07:55:24Z</time>
      </trkpt>
      <trkpt lat="48.27628" lon="-3.57336">
        <ele>153.94836425781</ele>
        <time>2012-04-19T07:55:41Z</time>
      </trkpt>
      <trkpt lat="48.27635" lon="-3.57237">
        <ele>154.42895507812</ele>
        <time>2012-04-19T07:55:58Z</time>
      </trkpt>
      <trkpt lat="48.27646" lon="-3.57154">
        <ele>154.42895507812</ele>
        <time>2012-04-19T07:56:17Z</time>
      </trkpt>
      <trkpt lat="48.27659" lon="-3.57051">
        <ele>153.94836425781</ele>
        <time>2012-04-19T07:56:36Z</time>
      </trkpt>
      <trkpt lat="48.27672" lon="-3.56932">
        <ele>152.50634765625</ele>
        <time>2012-04-19T07:56:52Z</time>
      </trkpt>
      <trkpt lat="48.27698" lon="-3.56787">
        <ele>148.66101074219</ele>
        <time>2012-04-19T07:57:11Z</time>
      </trkpt>
      <trkpt lat="48.27712" lon="-3.56699">
        <ele>146.2578125</ele>
        <time>2012-04-19T07:57:24Z</time>
      </trkpt>
      <trkpt lat="48.27714" lon="-3.56661">
        <ele>145.77709960938</ele>
        <time>2012-04-19T07:57:36Z</time>
      </trkpt>
      <trkpt lat="48.27713" lon="-3.56612">
        <ele>143.85437011719</ele>
        <time>2012-04-19T07:57:48Z</time>
      </trkpt>
      <trkpt lat="48.27705" lon="-3.56488">
        <ele>140.48986816406</ele>
        <time>2012-04-19T07:58:03Z</time>
      </trkpt>
      <trkpt lat="48.27702" lon="-3.56412">
        <ele>140.00915527344</ele>
        <time>2012-04-19T07:58:13Z</time>
      </trkpt>
      <trkpt lat="48.27687" lon="-3.56405">
        <ele>138.08654785156</ele>
        <time>2012-04-19T07:58:20Z</time>
      </trkpt>
      <trkpt lat="48.27637" lon="-3.56421">
        <ele>135.20251464844</ele>
        <time>2012-04-19T07:58:34Z</time>
      </trkpt>
      <trkpt lat="48.27637" lon="-3.56421">
        <ele>134.2412109375</ele>
        <time>2012-04-19T07:58:48Z</time>
      </trkpt>
      <trkpt lat="48.27637" lon="-3.56421">
        <ele>132.79931640625</ele>
        <time>2012-04-19T07:59:05Z</time>
      </trkpt>
      <trkpt lat="48.27637" lon="-3.56421">
        <ele>132.79931640625</ele>
        <time>2012-04-19T07:59:06Z</time>
      </trkpt>
      <trkpt lat="48.27586" lon="-3.56439">
        <ele>130.87670898438</ele>
        <time>2012-04-19T07:59:19Z</time>
      </trkpt>
      <trkpt lat="48.27563" lon="-3.56444">
        <ele>130.39599609375</ele>
        <time>2012-04-19T07:59:25Z</time>
      </trkpt>
      <trkpt lat="48.27548" lon="-3.56514">
        <ele>129.43469238281</ele>
        <time>2012-04-19T07:59:36Z</time>
      </trkpt>
      <trkpt lat="48.27546" lon="-3.56516">
        <ele>129.43469238281</ele>
        <time>2012-04-19T07:59:37Z</time>
      </trkpt>
      <trkpt lat="48.27528" lon="-3.56527">
        <ele>128.47338867188</ele>
        <time>2012-04-19T07:59:41Z</time>
      </trkpt>
      <trkpt lat="48.27499" lon="-3.56539">
        <ele>127.51196289062</ele>
        <time>2012-04-19T07:59:54Z</time>
      </trkpt>
      <trkpt lat="48.27474" lon="-3.5653">
        <ele>126.55065917969</ele>
        <time>2012-04-19T08:00:07Z</time>
      </trkpt>
      <trkpt lat="48.27474" lon="-3.56575">
        <ele>125.58935546875</ele>
        <time>2012-04-19T08:00:19Z</time>
      </trkpt>
      <trkpt lat="48.27471" lon="-3.56575">
        <ele>125.10876464844</ele>
        <time>2012-04-19T08:00:24Z</time>
      </trkpt>
      <trkpt lat="48.27454" lon="-3.56572">
        <ele>123.66674804688</ele>
        <time>2012-04-19T08:00:30Z</time>
      </trkpt>
      <trkpt lat="48.27384" lon="-3.56559">
        <ele>119.3408203125</ele>
        <time>2012-04-19T08:00:45Z</time>
      </trkpt>
      <trkpt lat="48.27323" lon="-3.5654">
        <ele>119.3408203125</ele>
        <time>2012-04-19T08:00:59Z</time>
      </trkpt>
      <trkpt lat="48.27312" lon="-3.56536">
        <ele>118.86010742188</ele>
        <time>2012-04-19T08:01:05Z</time>
      </trkpt>
      <trkpt lat="48.273" lon="-3.56525">
        <ele>119.3408203125</ele>
        <time>2012-04-19T08:01:10Z</time>
      </trkpt>
      <trkpt lat="48.27311" lon="-3.56475">
        <ele>122.22473144531</ele>
        <time>2012-04-19T08:01:26Z</time>
      </trkpt>
      <trkpt lat="48.27328" lon="-3.564">
        <ele>124.62805175781</ele>
        <time>2012-04-19T08:01:45Z</time>
      </trkpt>
      <trkpt lat="48.27349" lon="-3.5631">
        <ele>127.03137207031</ele>
        <time>2012-04-19T08:02:07Z</time>
      </trkpt>
      <trkpt lat="48.27364" lon="-3.56245">
        <ele>128.9541015625</ele>
        <time>2012-04-19T08:02:25Z</time>
      </trkpt>
      <trkpt lat="48.27353" lon="-3.56236">
        <ele>128.9541015625</ele>
        <time>2012-04-19T08:02:27Z</time>
      </trkpt>
      <trkpt lat="48.27355" lon="-3.56223">
        <ele>128.47338867188</ele>
        <time>2012-04-19T08:02:32Z</time>
      </trkpt>
      <trkpt lat="48.27326" lon="-3.56195">
        <ele>127.51196289062</ele>
        <time>2012-04-19T08:02:43Z</time>
      </trkpt>
      <trkpt lat="48.27276" lon="-3.5617">
        <ele>126.06994628906</ele>
        <time>2012-04-19T08:02:58Z</time>
      </trkpt>
      <trkpt lat="48.27248" lon="-3.5617">
        <ele>124.14733886719</ele>
        <time>2012-04-19T08:03:08Z</time>
      </trkpt>
      <trkpt lat="48.27246" lon="-3.56172">
        <ele>123.18615722656</ele>
        <time>2012-04-19T08:03:10Z</time>
      </trkpt>
      <trkpt lat="48.27205" lon="-3.56175">
        <ele>120.78283691406</ele>
        <time>2012-04-19T08:03:22Z</time>
      </trkpt>
      <trkpt lat="48.27169" lon="-3.56237">
        <ele>118.86010742188</ele>
        <time>2012-04-19T08:03:35Z</time>
      </trkpt>
      <trkpt lat="48.27041" lon="-3.56266">
        <ele>119.3408203125</ele>
        <time>2012-04-19T08:03:56Z</time>
      </trkpt>
      <trkpt lat="48.27032" lon="-3.56253">
        <ele>119.3408203125</ele>
        <time>2012-04-19T08:04:00Z</time>
      </trkpt>
      <trkpt lat="48.27032" lon="-3.56253">
        <ele>118.37939453125</ele>
        <time>2012-04-19T08:04:06Z</time>
      </trkpt>
      <trkpt lat="48.27032" lon="-3.56253">
        <ele>119.3408203125</ele>
        <time>2012-04-19T08:04:10Z</time>
      </trkpt>
      <trkpt lat="48.27014" lon="-3.56265">
        <ele>119.82141113281</ele>
        <time>2012-04-19T08:04:22Z</time>
      </trkpt>
      <trkpt lat="48.26983" lon="-3.56285">
        <ele>118.86010742188</ele>
        <time>2012-04-19T08:04:32Z</time>
      </trkpt>
      <trkpt lat="48.26952" lon="-3.56304">
        <ele>120.30212402344</ele>
        <time>2012-04-19T08:04:42Z</time>
      </trkpt>
      <trkpt lat="48.26905" lon="-3.56334">
        <ele>119.82141113281</ele>
        <time>2012-04-19T08:04:55Z</time>
      </trkpt>
      <trkpt lat="48.26858" lon="-3.56364">
        <ele>122.70544433594</ele>
        <time>2012-04-19T08:05:08Z</time>
      </trkpt>
      <trkpt lat="48.26808" lon="-3.56396">
        <ele>125.10876464844</ele>
        <time>2012-04-19T08:05:21Z</time>
      </trkpt>
      <trkpt lat="48.26769" lon="-3.56426">
        <ele>125.58935546875</ele>
        <time>2012-04-19T08:05:31Z</time>
      </trkpt>
      <trkpt lat="48.26739" lon="-3.56456">
        <ele>125.10876464844</ele>
        <time>2012-04-19T08:05:40Z</time>
      </trkpt>
      <trkpt lat="48.26702" lon="-3.56502">
        <ele>124.62805175781</ele>
        <time>2012-04-19T08:05:52Z</time>
      </trkpt>
      <trkpt lat="48.26675" lon="-3.56552">
        <ele>126.06994628906</ele>
        <time>2012-04-19T08:06:03Z</time>
      </trkpt>
      <trkpt lat="48.26639" lon="-3.5666">
        <ele>126.55065917969</ele>
        <time>2012-04-19T08:06:24Z</time>
      </trkpt>
      <trkpt lat="48.26627" lon="-3.56709">
        <ele>127.03137207031</ele>
        <time>2012-04-19T08:06:34Z</time>
      </trkpt>
      <trkpt lat="48.26625" lon="-3.5672">
        <ele>127.51196289062</ele>
        <time>2012-04-19T08:06:37Z</time>
      </trkpt>
      <trkpt lat="48.26623" lon="-3.56731">
        <ele>127.51196289062</ele>
        <time>2012-04-19T08:06:43Z</time>
      </trkpt>
      <trkpt lat="48.26622" lon="-3.56738">
        <ele>127.99255371094</ele>
        <time>2012-04-19T08:06:46Z</time>
      </trkpt>
      <trkpt lat="48.26619" lon="-3.56754">
        <ele>127.99255371094</ele>
        <time>2012-04-19T08:06:51Z</time>
      </trkpt>
      <trkpt lat="48.26617" lon="-3.56759">
        <ele>127.51196289062</ele>
        <time>2012-04-19T08:06:53Z</time>
      </trkpt>
      <trkpt lat="48.26615" lon="-3.56771">
        <ele>127.99255371094</ele>
        <time>2012-04-19T08:06:57Z</time>
      </trkpt>
      <trkpt lat="48.26601" lon="-3.56834">
        <ele>128.9541015625</ele>
        <time>2012-04-19T08:07:11Z</time>
      </trkpt>
      <trkpt lat="48.2659" lon="-3.56883">
        <ele>125.58935546875</ele>
        <time>2012-04-19T08:07:23Z</time>
      </trkpt>
      <trkpt lat="48.26565" lon="-3.56957">
        <ele>126.55065917969</ele>
        <time>2012-04-19T08:07:37Z</time>
      </trkpt>
      <trkpt lat="48.26545" lon="-3.57016">
        <ele>126.06994628906</ele>
        <time>2012-04-19T08:07:48Z</time>
      </trkpt>
      <trkpt lat="48.26522" lon="-3.57086">
        <ele>126.55065917969</ele>
        <time>2012-04-19T08:07:59Z</time>
      </trkpt>
      <trkpt lat="48.26505" lon="-3.57137">
        <ele>127.51196289062</ele>
        <time>2012-04-19T08:08:09Z</time>
      </trkpt>
      <trkpt lat="48.26517" lon="-3.57157">
        <ele>127.51196289062</ele>
        <time>2012-04-19T08:08:14Z</time>
      </trkpt>
      <trkpt lat="48.26502" lon="-3.5718">
        <ele>127.03137207031</ele>
        <time>2012-04-19T08:08:23Z</time>
      </trkpt>
      <trkpt lat="48.26476" lon="-3.57227">
        <ele>125.10876464844</ele>
        <time>2012-04-19T08:08:36Z</time>
      </trkpt>
      <trkpt lat="48.26442" lon="-3.57272">
        <ele>124.62805175781</ele>
        <time>2012-04-19T08:08:47Z</time>
      </trkpt>
      <trkpt lat="48.26433" lon="-3.57285">
        <ele>123.66674804688</ele>
        <time>2012-04-19T08:08:50Z</time>
      </trkpt>
      <trkpt lat="48.2638" lon="-3.57352">
        <ele>123.18615722656</ele>
        <time>2012-04-19T08:09:05Z</time>
      </trkpt>
      <trkpt lat="48.26335" lon="-3.57408">
        <ele>122.70544433594</ele>
        <time>2012-04-19T08:09:18Z</time>
      </trkpt>
      <trkpt lat="48.26318" lon="-3.5743">
        <ele>122.70544433594</ele>
        <time>2012-04-19T08:09:23Z</time>
      </trkpt>
      <trkpt lat="48.26293" lon="-3.57461">
        <ele>125.10876464844</ele>
        <time>2012-04-19T08:09:30Z</time>
      </trkpt>
      <trkpt lat="48.26264" lon="-3.57497">
        <ele>126.55065917969</ele>
        <time>2012-04-19T08:09:38Z</time>
      </trkpt>
      <trkpt lat="48.2618" lon="-3.57604">
        <ele>127.03137207031</ele>
        <time>2012-04-19T08:10:03Z</time>
      </trkpt>
      <trkpt lat="48.26144" lon="-3.57649">
        <ele>127.51196289062</ele>
        <time>2012-04-19T08:10:17Z</time>
      </trkpt>
      <trkpt lat="48.26136" lon="-3.5766">
        <ele>126.55065917969</ele>
        <time>2012-04-19T08:10:21Z</time>
      </trkpt>
      <trkpt lat="48.26135" lon="-3.57661">
        <ele>126.55065917969</ele>
        <time>2012-04-19T08:10:24Z</time>
      </trkpt>
      <trkpt lat="48.2611" lon="-3.57694">
        <ele>125.10876464844</ele>
        <time>2012-04-19T08:10:34Z</time>
      </trkpt>
      <trkpt lat="48.26062" lon="-3.57755">
        <ele>125.58935546875</ele>
        <time>2012-04-19T08:10:50Z</time>
      </trkpt>
      <trkpt lat="48.26062" lon="-3.57755">
        <ele>125.58935546875</ele>
        <time>2012-04-19T08:10:57Z</time>
      </trkpt>
      <trkpt lat="48.26015" lon="-3.57794">
        <ele>126.06994628906</ele>
        <time>2012-04-19T08:11:00Z</time>
      </trkpt>
      <trkpt lat="48.26" lon="-3.57846">
        <ele>126.06994628906</ele>
        <time>2012-04-19T08:11:10Z</time>
      </trkpt>
      <trkpt lat="48.25986" lon="-3.57911">
        <ele>124.14733886719</ele>
        <time>2012-04-19T08:11:28Z</time>
      </trkpt>
      <trkpt lat="48.25984" lon="-3.57921">
        <ele>124.14733886719</ele>
        <time>2012-04-19T08:11:33Z</time>
      </trkpt>
      <trkpt lat="48.25977" lon="-3.5794">
        <ele>125.58935546875</ele>
        <time>2012-04-19T08:11:43Z</time>
      </trkpt>
      <trkpt lat="48.25955" lon="-3.57941">
        <ele>126.06994628906</ele>
        <time>2012-04-19T08:11:48Z</time>
      </trkpt>
      <trkpt lat="48.25943" lon="-3.57943">
        <ele>126.06994628906</ele>
        <time>2012-04-19T08:11:51Z</time>
      </trkpt>
      <trkpt lat="48.25971" lon="-3.57928">
        <ele>125.58935546875</ele>
        <time>2012-04-19T08:11:57Z</time>
      </trkpt>
      <trkpt lat="48.25978" lon="-3.57895">
        <ele>125.10876464844</ele>
        <time>2012-04-19T08:12:08Z</time>
      </trkpt>
      <trkpt lat="48.25929" lon="-3.57875">
        <ele>124.62805175781</ele>
        <time>2012-04-19T08:12:18Z</time>
      </trkpt>
      <trkpt lat="48.25909" lon="-3.57886">
        <ele>121.744140625</ele>
        <time>2012-04-19T08:12:31Z</time>
      </trkpt>
      <trkpt lat="48.25857" lon="-3.57894">
        <ele>123.18615722656</ele>
        <time>2012-04-19T08:12:46Z</time>
      </trkpt>
      <trkpt lat="48.25817" lon="-3.57888">
        <ele>122.22473144531</ele>
        <time>2012-04-19T08:12:56Z</time>
      </trkpt>
      <trkpt lat="48.25805" lon="-3.57881">
        <ele>121.26354980469</ele>
        <time>2012-04-19T08:12:59Z</time>
      </trkpt>
      <trkpt lat="48.25787" lon="-3.57871">
        <ele>121.744140625</ele>
        <time>2012-04-19T08:13:04Z</time>
      </trkpt>
      <trkpt lat="48.25742" lon="-3.57848">
        <ele>117.89880371094</ele>
        <time>2012-04-19T08:13:16Z</time>
      </trkpt>
      <trkpt lat="48.25738" lon="-3.57846">
        <ele>117.89880371094</ele>
        <time>2012-04-19T08:13:17Z</time>
      </trkpt>
      <trkpt lat="48.25696" lon="-3.57824">
        <ele>119.3408203125</ele>
        <time>2012-04-19T08:13:26Z</time>
      </trkpt>
      <trkpt lat="48.25691" lon="-3.57822">
        <ele>118.86010742188</ele>
        <time>2012-04-19T08:13:27Z</time>
      </trkpt>
      <trkpt lat="48.25636" lon="-3.57803">
        <ele>116.45678710938</ele>
        <time>2012-04-19T08:13:38Z</time>
      </trkpt>
      <trkpt lat="48.25563" lon="-3.57817">
        <ele>116.9375</ele>
        <time>2012-04-19T08:13:54Z</time>
      </trkpt>
      <trkpt lat="48.25511" lon="-3.57853">
        <ele>115.01489257812</ele>
        <time>2012-04-19T08:14:07Z</time>
      </trkpt>
      <trkpt lat="48.25465" lon="-3.57895">
        <ele>111.65026855469</ele>
        <time>2012-04-19T08:14:23Z</time>
      </trkpt>
      <trkpt lat="48.25461" lon="-3.57899">
        <ele>110.20825195312</ele>
        <time>2012-04-19T08:14:34Z</time>
      </trkpt>
      <trkpt lat="48.25458" lon="-3.57901">
        <ele>109.24694824219</ele>
        <time>2012-04-19T08:14:36Z</time>
      </trkpt>
      <trkpt lat="48.25445" lon="-3.57913">
        <ele>108.76623535156</ele>
        <time>2012-04-19T08:14:41Z</time>
      </trkpt>
      <trkpt lat="48.25437" lon="-3.57921">
        <ele>110.20825195312</ele>
        <time>2012-04-19T08:14:49Z</time>
      </trkpt>
      <trkpt lat="48.25436" lon="-3.57923">
        <ele>111.16955566406</ele>
        <time>2012-04-19T08:15:04Z</time>
      </trkpt>
      <trkpt lat="48.25436" lon="-3.57923">
        <ele>112.61157226562</ele>
        <time>2012-04-19T08:15:24Z</time>
      </trkpt>
      <trkpt lat="48.25436" lon="-3.57923">
        <ele>112.61157226562</ele>
        <time>2012-04-19T08:15:47Z</time>
      </trkpt>
      <trkpt lat="48.25391" lon="-3.57964">
        <ele>111.65026855469</ele>
        <time>2012-04-19T08:16:16Z</time>
      </trkpt>
      <trkpt lat="48.25331" lon="-3.58019">
        <ele>109.24694824219</ele>
        <time>2012-04-19T08:16:33Z</time>
      </trkpt>
      <trkpt lat="48.25257" lon="-3.58093">
        <ele>108.28564453125</ele>
        <time>2012-04-19T08:16:54Z</time>
      </trkpt>
      <trkpt lat="48.25254" lon="-3.58097">
        <ele>107.80505371094</ele>
        <time>2012-04-19T08:16:55Z</time>
      </trkpt>
      <trkpt lat="48.2521" lon="-3.58153">
        <ele>105.40173339844</ele>
        <time>2012-04-19T08:17:09Z</time>
      </trkpt>
      <trkpt lat="48.25158" lon="-3.58224">
        <ele>103.95971679688</ele>
        <time>2012-04-19T08:17:26Z</time>
      </trkpt>
      <trkpt lat="48.25133" lon="-3.58265">
        <ele>102.99829101562</ele>
        <time>2012-04-19T08:17:39Z</time>
      </trkpt>
      <trkpt lat="48.25076" lon="-3.58335">
        <ele>102.037109375</ele>
        <time>2012-04-19T08:17:57Z</time>
      </trkpt>
      <trkpt lat="48.25053" lon="-3.5835">
        <ele>102.037109375</ele>
        <time>2012-04-19T08:18:08Z</time>
      </trkpt>
      <trkpt lat="48.25047" lon="-3.58355">
        <ele>101.55639648438</ele>
        <time>2012-04-19T08:18:11Z</time>
      </trkpt>
      <trkpt lat="48.24996" lon="-3.58359">
        <ele>98.672485351562</ele>
        <time>2012-04-19T08:18:24Z</time>
      </trkpt>
      <trkpt lat="48.24913" lon="-3.58332">
        <ele>96.749877929688</ele>
        <time>2012-04-19T08:18:41Z</time>
      </trkpt>
      <trkpt lat="48.24855" lon="-3.58304">
        <ele>95.307739257812</ele>
        <time>2012-04-19T08:18:53Z</time>
      </trkpt>
      <trkpt lat="48.24794" lon="-3.58306">
        <ele>93.865844726562</ele>
        <time>2012-04-19T08:19:05Z</time>
      </trkpt>
      <trkpt lat="48.24737" lon="-3.58341">
        <ele>92.423950195312</ele>
        <time>2012-04-19T08:19:18Z</time>
      </trkpt>
      <trkpt lat="48.24715" lon="-3.58354">
        <ele>93.385131835938</ele>
        <time>2012-04-19T08:19:23Z</time>
      </trkpt>
      <trkpt lat="48.24656" lon="-3.58413">
        <ele>94.8271484375</ele>
        <time>2012-04-19T08:19:38Z</time>
      </trkpt>
      <trkpt lat="48.24643" lon="-3.5843">
        <ele>96.749877929688</ele>
        <time>2012-04-19T08:19:42Z</time>
      </trkpt>
      <trkpt lat="48.24606" lon="-3.58485">
        <ele>93.865844726562</ele>
        <time>2012-04-19T08:19:54Z</time>
      </trkpt>
      <trkpt lat="48.24559" lon="-3.58565">
        <ele>89.539916992188</ele>
        <time>2012-04-19T08:20:11Z</time>
      </trkpt>
      <trkpt lat="48.24555" lon="-3.58571">
        <ele>88.578735351562</ele>
        <time>2012-04-19T08:20:14Z</time>
      </trkpt>
      <trkpt lat="48.24528" lon="-3.58615">
        <ele>83.77197265625</ele>
        <time>2012-04-19T08:20:29Z</time>
      </trkpt>
      <trkpt lat="48.24527" lon="-3.58686">
        <ele>80.407470703125</ele>
        <time>2012-04-19T08:20:42Z</time>
      </trkpt>
      <trkpt lat="48.24543" lon="-3.58712">
        <ele>79.926635742188</ele>
        <time>2012-04-19T08:20:56Z</time>
      </trkpt>
      <trkpt lat="48.24573" lon="-3.58761">
        <ele>77.042846679688</ele>
        <time>2012-04-19T08:21:11Z</time>
      </trkpt>
      <trkpt lat="48.24628" lon="-3.58836">
        <ele>76.081420898438</ele>
        <time>2012-04-19T08:21:27Z</time>
      </trkpt>
      <trkpt lat="48.24654" lon="-3.58878">
        <ele>74.639526367188</ele>
        <time>2012-04-19T08:21:35Z</time>
      </trkpt>
      <trkpt lat="48.24671" lon="-3.58949">
        <ele>73.197631835938</ele>
        <time>2012-04-19T08:21:46Z</time>
      </trkpt>
      <trkpt lat="48.24669" lon="-3.59043">
        <ele>74.158813476562</ele>
        <time>2012-04-19T08:22:00Z</time>
      </trkpt>
      <trkpt lat="48.24656" lon="-3.59081">
        <ele>75.600830078125</ele>
        <time>2012-04-19T08:22:06Z</time>
      </trkpt>
      <trkpt lat="48.24611" lon="-3.5915">
        <ele>77.5234375</ele>
        <time>2012-04-19T08:22:19Z</time>
      </trkpt>
      <trkpt lat="48.24532" lon="-3.5915">
        <ele>79.446044921875</ele>
        <time>2012-04-19T08:22:35Z</time>
      </trkpt>
      <trkpt lat="48.24439" lon="-3.5915">
        <ele>80.88818359375</ele>
        <time>2012-04-19T08:22:56Z</time>
      </trkpt>
      <trkpt lat="48.24404" lon="-3.59159">
        <ele>81.368774414062</ele>
        <time>2012-04-19T08:23:06Z</time>
      </trkpt>
      <trkpt lat="48.24384" lon="-3.5918">
        <ele>80.88818359375</ele>
        <time>2012-04-19T08:23:16Z</time>
      </trkpt>
      <trkpt lat="48.24369" lon="-3.59235">
        <ele>77.042846679688</ele>
        <time>2012-04-19T08:23:28Z</time>
      </trkpt>
      <trkpt lat="48.24367" lon="-3.59261">
        <ele>76.081420898438</ele>
        <time>2012-04-19T08:23:33Z</time>
      </trkpt>
      <trkpt lat="48.24361" lon="-3.59327">
        <ele>75.120239257812</ele>
        <time>2012-04-19T08:23:45Z</time>
      </trkpt>
      <trkpt lat="48.24355" lon="-3.59404">
        <ele>75.600830078125</ele>
        <time>2012-04-19T08:23:58Z</time>
      </trkpt>
      <trkpt lat="48.24347" lon="-3.59506">
        <ele>75.120239257812</ele>
        <time>2012-04-19T08:24:19Z</time>
      </trkpt>
      <trkpt lat="48.24344" lon="-3.59551">
        <ele>73.197631835938</ele>
        <time>2012-04-19T08:24:26Z</time>
      </trkpt>
      <trkpt lat="48.24339" lon="-3.59607">
        <ele>73.197631835938</ele>
        <time>2012-04-19T08:24:34Z</time>
      </trkpt>
      <trkpt lat="48.24336" lon="-3.59647">
        <ele>72.716918945312</ele>
        <time>2012-04-19T08:24:40Z</time>
      </trkpt>
      <trkpt lat="48.24323" lon="-3.59726">
        <ele>75.120239257812</ele>
        <time>2012-04-19T08:24:53Z</time>
      </trkpt>
      <trkpt lat="48.2428" lon="-3.59838">
        <ele>76.562133789062</ele>
        <time>2012-04-19T08:25:13Z</time>
      </trkpt>
      <trkpt lat="48.24216" lon="-3.5996">
        <ele>78.004028320312</ele>
        <time>2012-04-19T08:25:38Z</time>
      </trkpt>
      <trkpt lat="48.24185" lon="-3.60017">
        <ele>80.88818359375</ele>
        <time>2012-04-19T08:25:54Z</time>
      </trkpt>
      <trkpt lat="48.24174" lon="-3.6006">
        <ele>78.965454101562</ele>
        <time>2012-04-19T08:26:11Z</time>
      </trkpt>
      <trkpt lat="48.24174" lon="-3.6006">
        <ele>78.004028320312</ele>
        <time>2012-04-19T08:26:14Z</time>
      </trkpt>
      <trkpt lat="48.24177" lon="-3.60092">
        <ele>77.042846679688</ele>
        <time>2012-04-19T08:26:16Z</time>
      </trkpt>
      <trkpt lat="48.24183" lon="-3.60118">
        <ele>76.081420898438</ele>
        <time>2012-04-19T08:26:20Z</time>
      </trkpt>
      <trkpt lat="48.24215" lon="-3.60201">
        <ele>76.562133789062</ele>
        <time>2012-04-19T08:26:35Z</time>
      </trkpt>
      <trkpt lat="48.24216" lon="-3.60203">
        <ele>76.562133789062</ele>
        <time>2012-04-19T08:26:37Z</time>
      </trkpt>
      <trkpt lat="48.24214" lon="-3.60208">
        <ele>76.081420898438</ele>
        <time>2012-04-19T08:26:41Z</time>
      </trkpt>
      <trkpt lat="48.24201" lon="-3.60221">
        <ele>76.562133789062</ele>
        <time>2012-04-19T08:26:47Z</time>
      </trkpt>
      <trkpt lat="48.24217" lon="-3.60206">
        <ele>76.081420898438</ele>
        <time>2012-04-19T08:26:51Z</time>
      </trkpt>
      <trkpt lat="48.24217" lon="-3.60206">
        <ele>74.639526367188</ele>
        <time>2012-04-19T08:26:54Z</time>
      </trkpt>
      <trkpt lat="48.24224" lon="-3.60384">
        <ele>75.120239257812</ele>
        <time>2012-04-19T08:27:09Z</time>
      </trkpt>
      <trkpt lat="48.24229" lon="-3.6039">
        <ele>75.600830078125</ele>
        <time>2012-04-19T08:27:11Z</time>
      </trkpt>
      <trkpt lat="48.24299" lon="-3.6049">
        <ele>76.562133789062</ele>
        <time>2012-04-19T08:27:35Z</time>
      </trkpt>
      <trkpt lat="48.2433" lon="-3.60579">
        <ele>76.081420898438</ele>
        <time>2012-04-19T08:27:57Z</time>
      </trkpt>
      <trkpt lat="48.24335" lon="-3.60621">
        <ele>74.639526367188</ele>
        <time>2012-04-19T08:28:07Z</time>
      </trkpt>
      <trkpt lat="48.24426" lon="-3.60701">
        <ele>73.197631835938</ele>
        <time>2012-04-19T08:28:26Z</time>
      </trkpt>
      <trkpt lat="48.24465" lon="-3.60786">
        <ele>73.197631835938</ele>
        <time>2012-04-19T08:28:44Z</time>
      </trkpt>
      <trkpt lat="48.24501" lon="-3.60871">
        <ele>77.042846679688</ele>
        <time>2012-04-19T08:29:02Z</time>
      </trkpt>
      <trkpt lat="48.24525" lon="-3.60924">
        <ele>76.562133789062</ele>
        <time>2012-04-19T08:29:13Z</time>
      </trkpt>
      <trkpt lat="48.24594" lon="-3.60944">
        <ele>78.484741210938</ele>
        <time>2012-04-19T08:29:30Z</time>
      </trkpt>
      <trkpt lat="48.24593" lon="-3.61068">
        <ele>76.562133789062</ele>
        <time>2012-04-19T08:29:43Z</time>
      </trkpt>
      <trkpt lat="48.24625" lon="-3.61136">
        <ele>77.042846679688</ele>
        <time>2012-04-19T08:29:58Z</time>
      </trkpt>
      <trkpt lat="48.24654" lon="-3.61196">
        <ele>75.600830078125</ele>
        <time>2012-04-19T08:30:11Z</time>
      </trkpt>
      <trkpt lat="48.24681" lon="-3.61255">
        <ele>74.639526367188</ele>
        <time>2012-04-19T08:30:24Z</time>
      </trkpt>
      <trkpt lat="48.24693" lon="-3.61326">
        <ele>74.639526367188</ele>
        <time>2012-04-19T08:30:36Z</time>
      </trkpt>
      <trkpt lat="48.24709" lon="-3.61389">
        <ele>73.67822265625</ele>
        <time>2012-04-19T08:30:47Z</time>
      </trkpt>
      <trkpt lat="48.24722" lon="-3.61473">
        <ele>73.67822265625</ele>
        <time>2012-04-19T08:31:03Z</time>
      </trkpt>
      <trkpt lat="48.2472" lon="-3.61495">
        <ele>73.67822265625</ele>
        <time>2012-04-19T08:31:07Z</time>
      </trkpt>
      <trkpt lat="48.24705" lon="-3.61557">
        <ele>73.67822265625</ele>
        <time>2012-04-19T08:31:21Z</time>
      </trkpt>
      <trkpt lat="48.24671" lon="-3.61662">
        <ele>71.755493164062</ele>
        <time>2012-04-19T08:31:42Z</time>
      </trkpt>
      <trkpt lat="48.2464" lon="-3.61726">
        <ele>72.236206054688</ele>
        <time>2012-04-19T08:31:57Z</time>
      </trkpt>
      <trkpt lat="48.24643" lon="-3.61743">
        <ele>71.755493164062</ele>
        <time>2012-04-19T08:32:02Z</time>
      </trkpt>
      <trkpt lat="48.24649" lon="-3.61749">
        <ele>71.27490234375</ele>
        <time>2012-04-19T08:32:05Z</time>
      </trkpt>
      <trkpt lat="48.24657" lon="-3.61777">
        <ele>69.832885742188</ele>
        <time>2012-04-19T08:32:09Z</time>
      </trkpt>
      <trkpt lat="48.24595" lon="-3.61894">
        <ele>67.910278320312</ele>
        <time>2012-04-19T08:32:28Z</time>
      </trkpt>
      <trkpt lat="48.24506" lon="-3.6196">
        <ele>67.910278320312</ele>
        <time>2012-04-19T08:32:48Z</time>
      </trkpt>
      <trkpt lat="48.24424" lon="-3.61972">
        <ele>67.910278320312</ele>
        <time>2012-04-19T08:33:07Z</time>
      </trkpt>
      <trkpt lat="48.24392" lon="-3.61973">
        <ele>68.390869140625</ele>
        <time>2012-04-19T08:33:15Z</time>
      </trkpt>
      <trkpt lat="48.24306" lon="-3.61963">
        <ele>70.794189453125</ele>
        <time>2012-04-19T08:33:35Z</time>
      </trkpt>
      <trkpt lat="48.2423" lon="-3.6196">
        <ele>71.755493164062</ele>
        <time>2012-04-19T08:33:54Z</time>
      </trkpt>
      <trkpt lat="48.24169" lon="-3.6193">
        <ele>70.794189453125</ele>
        <time>2012-04-19T08:34:10Z</time>
      </trkpt>
      <trkpt lat="48.2409" lon="-3.61928">
        <ele>72.716918945312</ele>
        <time>2012-04-19T08:34:31Z</time>
      </trkpt>
      <trkpt lat="48.24017" lon="-3.61934">
        <ele>74.158813476562</ele>
        <time>2012-04-19T08:34:52Z</time>
      </trkpt>
      <trkpt lat="48.23948" lon="-3.61918">
        <ele>72.716918945312</ele>
        <time>2012-04-19T08:35:12Z</time>
      </trkpt>
      <trkpt lat="48.23893" lon="-3.619">
        <ele>72.236206054688</ele>
        <time>2012-04-19T08:35:27Z</time>
      </trkpt>
      <trkpt lat="48.23817" lon="-3.61906">
        <ele>70.3134765625</ele>
        <time>2012-04-19T08:35:48Z</time>
      </trkpt>
      <trkpt lat="48.23749" lon="-3.61939">
        <ele>68.390869140625</ele>
        <time>2012-04-19T08:36:07Z</time>
      </trkpt>
      <trkpt lat="48.2371" lon="-3.62016">
        <ele>67.4296875</ele>
        <time>2012-04-19T08:36:24Z</time>
      </trkpt>
      <trkpt lat="48.23663" lon="-3.62117">
        <ele>66.46826171875</ele>
        <time>2012-04-19T08:36:46Z</time>
      </trkpt>
      <trkpt lat="48.23637" lon="-3.62221">
        <ele>67.4296875</ele>
        <time>2012-04-19T08:37:06Z</time>
      </trkpt>
      <trkpt lat="48.2361" lon="-3.62328">
        <ele>66.46826171875</ele>
        <time>2012-04-19T08:37:27Z</time>
      </trkpt>
      <trkpt lat="48.23577" lon="-3.62419">
        <ele>65.987670898438</ele>
        <time>2012-04-19T08:37:45Z</time>
      </trkpt>
      <trkpt lat="48.23552" lon="-3.62505">
        <ele>66.948974609375</ele>
        <time>2012-04-19T08:38:01Z</time>
      </trkpt>
      <trkpt lat="48.23515" lon="-3.62635">
        <ele>70.794189453125</ele>
        <time>2012-04-19T08:38:23Z</time>
      </trkpt>
      <trkpt lat="48.23489" lon="-3.62725">
        <ele>74.158813476562</ele>
        <time>2012-04-19T08:38:41Z</time>
      </trkpt>
      <trkpt lat="48.23475" lon="-3.62774">
        <ele>75.600830078125</ele>
        <time>2012-04-19T08:38:51Z</time>
      </trkpt>
      <trkpt lat="48.23448" lon="-3.62869">
        <ele>70.794189453125</ele>
        <time>2012-04-19T08:39:07Z</time>
      </trkpt>
      <trkpt lat="48.2343" lon="-3.62933">
        <ele>68.390869140625</ele>
        <time>2012-04-19T08:39:19Z</time>
      </trkpt>
      <trkpt lat="48.23426" lon="-3.62946">
        <ele>68.390869140625</ele>
        <time>2012-04-19T08:39:21Z</time>
      </trkpt>
      <trkpt lat="48.23399" lon="-3.6304">
        <ele>65.507080078125</ele>
        <time>2012-04-19T08:39:37Z</time>
      </trkpt>
      <trkpt lat="48.23391" lon="-3.63068">
        <ele>65.507080078125</ele>
        <time>2012-04-19T08:39:42Z</time>
      </trkpt>
      <trkpt lat="48.23361" lon="-3.63174">
        <ele>64.545654296875</ele>
        <time>2012-04-19T08:40:00Z</time>
      </trkpt>
      <trkpt lat="48.23345" lon="-3.63228">
        <ele>64.065063476562</ele>
        <time>2012-04-19T08:40:09Z</time>
      </trkpt>
      <trkpt lat="48.23306" lon="-3.63331">
        <ele>64.545654296875</ele>
        <time>2012-04-19T08:40:27Z</time>
      </trkpt>
      <trkpt lat="48.2326" lon="-3.63381">
        <ele>65.0263671875</ele>
        <time>2012-04-19T08:40:41Z</time>
      </trkpt>
      <trkpt lat="48.23234" lon="-3.63395">
        <ele>65.0263671875</ele>
        <time>2012-04-19T08:40:48Z</time>
      </trkpt>
      <trkpt lat="48.23168" lon="-3.63421">
        <ele>63.103637695312</ele>
        <time>2012-04-19T08:41:06Z</time>
      </trkpt>
      <trkpt lat="48.23069" lon="-3.63446">
        <ele>65.987670898438</ele>
        <time>2012-04-19T08:41:30Z</time>
      </trkpt>
      <trkpt lat="48.22968" lon="-3.63472">
        <ele>68.390869140625</ele>
        <time>2012-04-19T08:41:55Z</time>
      </trkpt>
      <trkpt lat="48.22955" lon="-3.63475">
        <ele>69.352294921875</ele>
        <time>2012-04-19T08:41:58Z</time>
      </trkpt>
      <trkpt lat="48.22891" lon="-3.63502">
        <ele>71.27490234375</ele>
        <time>2012-04-19T08:42:15Z</time>
      </trkpt>
      <trkpt lat="48.22838" lon="-3.6353">
        <ele>70.3134765625</ele>
        <time>2012-04-19T08:42:29Z</time>
      </trkpt>
      <trkpt lat="48.22762" lon="-3.63608">
        <ele>67.910278320312</ele>
        <time>2012-04-19T08:42:51Z</time>
      </trkpt>
      <trkpt lat="48.2268" lon="-3.63693">
        <ele>65.507080078125</ele>
        <time>2012-04-19T08:43:16Z</time>
      </trkpt>
      <trkpt lat="48.22615" lon="-3.63739">
        <ele>65.987670898438</ele>
        <time>2012-04-19T08:43:35Z</time>
      </trkpt>
      <trkpt lat="48.22599" lon="-3.63769">
        <ele>65.987670898438</ele>
        <time>2012-04-19T08:43:41Z</time>
      </trkpt>
      <trkpt lat="48.22565" lon="-3.63883">
        <ele>66.46826171875</ele>
        <time>2012-04-19T08:44:02Z</time>
      </trkpt>
      <trkpt lat="48.22554" lon="-3.64005">
        <ele>63.584350585938</ele>
        <time>2012-04-19T08:44:23Z</time>
      </trkpt>
      <trkpt lat="48.22559" lon="-3.64101">
        <ele>61.181030273438</ele>
        <time>2012-04-19T08:44:40Z</time>
      </trkpt>
      <trkpt lat="48.22566" lon="-3.64183">
        <ele>61.661743164062</ele>
        <time>2012-04-19T08:44:54Z</time>
      </trkpt>
      <trkpt lat="48.2258" lon="-3.64306">
        <ele>61.661743164062</ele>
        <time>2012-04-19T08:45:16Z</time>
      </trkpt>
      <trkpt lat="48.22592" lon="-3.64411">
        <ele>61.181030273438</ele>
        <time>2012-04-19T08:45:33Z</time>
      </trkpt>
      <trkpt lat="48.22604" lon="-3.64509">
        <ele>65.507080078125</ele>
        <time>2012-04-19T08:45:51Z</time>
      </trkpt>
      <trkpt lat="48.2261" lon="-3.64558">
        <ele>67.4296875</ele>
        <time>2012-04-19T08:45:59Z</time>
      </trkpt>
      <trkpt lat="48.22618" lon="-3.64615">
        <ele>69.832885742188</ele>
        <time>2012-04-19T08:46:10Z</time>
      </trkpt>
      <trkpt lat="48.22624" lon="-3.64665">
        <ele>69.832885742188</ele>
        <time>2012-04-19T08:46:18Z</time>
      </trkpt>
      <trkpt lat="48.22632" lon="-3.64736">
        <ele>66.46826171875</ele>
        <time>2012-04-19T08:46:28Z</time>
      </trkpt>
      <trkpt lat="48.22641" lon="-3.64805">
        <ele>65.987670898438</ele>
        <time>2012-04-19T08:46:39Z</time>
      </trkpt>
      <trkpt lat="48.22651" lon="-3.64888">
        <ele>62.622924804688</ele>
        <time>2012-04-19T08:46:52Z</time>
      </trkpt>
      <trkpt lat="48.22657" lon="-3.64932">
        <ele>61.661743164062</ele>
        <time>2012-04-19T08:46:59Z</time>
      </trkpt>
      <trkpt lat="48.22659" lon="-3.64951">
        <ele>62.142333984375</ele>
        <time>2012-04-19T08:47:02Z</time>
      </trkpt>
      <trkpt lat="48.22662" lon="-3.65031">
        <ele>63.584350585938</ele>
        <time>2012-04-19T08:47:16Z</time>
      </trkpt>
      <trkpt lat="48.22659" lon="-3.65054">
        <ele>64.065063476562</ele>
        <time>2012-04-19T08:47:20Z</time>
      </trkpt>
      <trkpt lat="48.22654" lon="-3.65108">
        <ele>64.545654296875</ele>
        <time>2012-04-19T08:47:29Z</time>
      </trkpt>
      <trkpt lat="48.22653" lon="-3.65163">
        <ele>65.507080078125</ele>
        <time>2012-04-19T08:47:37Z</time>
      </trkpt>
      <trkpt lat="48.22652" lon="-3.65192">
        <ele>64.545654296875</ele>
        <time>2012-04-19T08:47:41Z</time>
      </trkpt>
      <trkpt lat="48.2265" lon="-3.65276">
        <ele>65.0263671875</ele>
        <time>2012-04-19T08:47:55Z</time>
      </trkpt>
      <trkpt lat="48.2263" lon="-3.65365">
        <ele>65.987670898438</ele>
        <time>2012-04-19T08:48:11Z</time>
      </trkpt>
      <trkpt lat="48.22587" lon="-3.65439">
        <ele>65.507080078125</ele>
        <time>2012-04-19T08:48:27Z</time>
      </trkpt>
      <trkpt lat="48.22576" lon="-3.65455">
        <ele>65.507080078125</ele>
        <time>2012-04-19T08:48:31Z</time>
      </trkpt>
      <trkpt lat="48.2251" lon="-3.65513">
        <ele>69.832885742188</ele>
        <time>2012-04-19T08:48:51Z</time>
      </trkpt>
      <trkpt lat="48.22449" lon="-3.65542">
        <ele>75.120239257812</ele>
        <time>2012-04-19T08:49:08Z</time>
      </trkpt>
      <trkpt lat="48.22385" lon="-3.65555">
        <ele>77.5234375</ele>
        <time>2012-04-19T08:49:27Z</time>
      </trkpt>
      <trkpt lat="48.22374" lon="-3.65557">
        <ele>77.5234375</ele>
        <time>2012-04-19T08:49:32Z</time>
      </trkpt>
      <trkpt lat="48.22359" lon="-3.65547">
        <ele>77.5234375</ele>
        <time>2012-04-19T08:49:36Z</time>
      </trkpt>
      <trkpt lat="48.22359" lon="-3.65547">
        <ele>78.004028320312</ele>
        <time>2012-04-19T08:49:42Z</time>
      </trkpt>
      <trkpt lat="48.22348" lon="-3.65567">
        <ele>78.004028320312</ele>
        <time>2012-04-19T08:49:56Z</time>
      </trkpt>
      <trkpt lat="48.22338" lon="-3.65564">
        <ele>75.600830078125</ele>
        <time>2012-04-19T08:50:01Z</time>
      </trkpt>
      <trkpt lat="48.22333" lon="-3.65565">
        <ele>73.67822265625</ele>
        <time>2012-04-19T08:50:06Z</time>
      </trkpt>
      <trkpt lat="48.22321" lon="-3.65567">
        <ele>71.27490234375</ele>
        <time>2012-04-19T08:50:10Z</time>
      </trkpt>
      <trkpt lat="48.22257" lon="-3.65578">
        <ele>70.3134765625</ele>
        <time>2012-04-19T08:50:30Z</time>
      </trkpt>
      <trkpt lat="48.22202" lon="-3.65587">
        <ele>67.4296875</ele>
        <time>2012-04-19T08:50:48Z</time>
      </trkpt>
      <trkpt lat="48.22148" lon="-3.65596">
        <ele>65.0263671875</ele>
        <time>2012-04-19T08:51:04Z</time>
      </trkpt>
      <trkpt lat="48.22099" lon="-3.65604">
        <ele>63.103637695312</ele>
        <time>2012-04-19T08:51:20Z</time>
      </trkpt>
      <trkpt lat="48.22049" lon="-3.6564">
        <ele>61.661743164062</ele>
        <time>2012-04-19T08:51:36Z</time>
      </trkpt>
      <trkpt lat="48.21992" lon="-3.657">
        <ele>61.181030273438</ele>
        <time>2012-04-19T08:51:56Z</time>
      </trkpt>
      <trkpt lat="48.21939" lon="-3.65744">
        <ele>60.700317382812</ele>
        <time>2012-04-19T08:52:13Z</time>
      </trkpt>
      <trkpt lat="48.21917" lon="-3.65752">
        <ele>60.700317382812</ele>
        <time>2012-04-19T08:52:19Z</time>
      </trkpt>
      <trkpt lat="48.21894" lon="-3.65761">
        <ele>60.2197265625</ele>
        <time>2012-04-19T08:52:25Z</time>
      </trkpt>
      <trkpt lat="48.21835" lon="-3.65821">
        <ele>60.700317382812</ele>
        <time>2012-04-19T08:52:44Z</time>
      </trkpt>
      <trkpt lat="48.21801" lon="-3.65904">
        <ele>60.2197265625</ele>
        <time>2012-04-19T08:53:02Z</time>
      </trkpt>
      <trkpt lat="48.21782" lon="-3.6597">
        <ele>62.622924804688</ele>
        <time>2012-04-19T08:53:15Z</time>
      </trkpt>
      <trkpt lat="48.21776" lon="-3.6599">
        <ele>63.584350585938</ele>
        <time>2012-04-19T08:53:19Z</time>
      </trkpt>
      <trkpt lat="48.21788" lon="-3.66088">
        <ele>63.584350585938</ele>
        <time>2012-04-19T08:53:34Z</time>
      </trkpt>
      <trkpt lat="48.21794" lon="-3.66105">
        <ele>63.103637695312</ele>
        <time>2012-04-19T08:53:37Z</time>
      </trkpt>
      <trkpt lat="48.21824" lon="-3.6616">
        <ele>63.103637695312</ele>
        <time>2012-04-19T08:53:50Z</time>
      </trkpt>
      <trkpt lat="48.21862" lon="-3.66212">
        <ele>62.142333984375</ele>
        <time>2012-04-19T08:54:04Z</time>
      </trkpt>
      <trkpt lat="48.2189" lon="-3.66252">
        <ele>60.700317382812</ele>
        <time>2012-04-19T08:54:15Z</time>
      </trkpt>
      <trkpt lat="48.21956" lon="-3.66357">
        <ele>57.335815429688</ele>
        <time>2012-04-19T08:54:38Z</time>
      </trkpt>
      <trkpt lat="48.21966" lon="-3.6638">
        <ele>56.855102539062</ele>
        <time>2012-04-19T08:54:42Z</time>
      </trkpt>
      <trkpt lat="48.22" lon="-3.6646">
        <ele>56.855102539062</ele>
        <time>2012-04-19T08:54:58Z</time>
      </trkpt>
      <trkpt lat="48.22016" lon="-3.66498">
        <ele>56.855102539062</ele>
        <time>2012-04-19T08:55:05Z</time>
      </trkpt>
      <trkpt lat="48.22033" lon="-3.66538">
        <ele>57.335815429688</ele>
        <time>2012-04-19T08:55:14Z</time>
      </trkpt>
      <trkpt lat="48.22074" lon="-3.666">
        <ele>57.335815429688</ele>
        <time>2012-04-19T08:55:27Z</time>
      </trkpt>
      <trkpt lat="48.22125" lon="-3.66694">
        <ele>56.37451171875</ele>
        <time>2012-04-19T08:55:48Z</time>
      </trkpt>
      <trkpt lat="48.22172" lon="-3.66822">
        <ele>58.297119140625</ele>
        <time>2012-04-19T08:56:12Z</time>
      </trkpt>
      <trkpt lat="48.22196" lon="-3.66892">
        <ele>60.2197265625</ele>
        <time>2012-04-19T08:56:27Z</time>
      </trkpt>
      <trkpt lat="48.22198" lon="-3.66928">
        <ele>59.258422851562</ele>
        <time>2012-04-19T08:56:34Z</time>
      </trkpt>
      <trkpt lat="48.22196" lon="-3.66949">
        <ele>56.855102539062</ele>
        <time>2012-04-19T08:56:38Z</time>
      </trkpt>
      <trkpt lat="48.22194" lon="-3.66968">
        <ele>55.4130859375</ele>
        <time>2012-04-19T08:56:41Z</time>
      </trkpt>
      <trkpt lat="48.22176" lon="-3.67075">
        <ele>56.37451171875</ele>
        <time>2012-04-19T08:56:57Z</time>
      </trkpt>
      <trkpt lat="48.22161" lon="-3.6716">
        <ele>58.777709960938</ele>
        <time>2012-04-19T08:57:10Z</time>
      </trkpt>
      <trkpt lat="48.22142" lon="-3.67268">
        <ele>58.297119140625</ele>
        <time>2012-04-19T08:57:26Z</time>
      </trkpt>
      <trkpt lat="48.22087" lon="-3.67438">
        <ele>60.2197265625</ele>
        <time>2012-04-19T08:57:55Z</time>
      </trkpt>
      <trkpt lat="48.22078" lon="-3.67458">
        <ele>59.739135742188</ele>
        <time>2012-04-19T08:57:59Z</time>
      </trkpt>
      <trkpt lat="48.22059" lon="-3.67581">
        <ele>60.700317382812</ele>
        <time>2012-04-19T08:58:17Z</time>
      </trkpt>
      <trkpt lat="48.2205" lon="-3.67664">
        <ele>58.777709960938</ele>
        <time>2012-04-19T08:58:30Z</time>
      </trkpt>
      <trkpt lat="48.22052" lon="-3.67822">
        <ele>57.816528320312</ele>
        <time>2012-04-19T08:58:54Z</time>
      </trkpt>
      <trkpt lat="48.2204" lon="-3.6796">
        <ele>58.297119140625</ele>
        <time>2012-04-19T08:59:16Z</time>
      </trkpt>
      <trkpt lat="48.22015" lon="-3.68098">
        <ele>59.258422851562</ele>
        <time>2012-04-19T08:59:38Z</time>
      </trkpt>
      <trkpt lat="48.21965" lon="-3.68229">
        <ele>58.777709960938</ele>
        <time>2012-04-19T09:00:02Z</time>
      </trkpt>
      <trkpt lat="48.21911" lon="-3.68339">
        <ele>60.700317382812</ele>
        <time>2012-04-19T09:00:24Z</time>
      </trkpt>
      <trkpt lat="48.2184" lon="-3.68465">
        <ele>60.700317382812</ele>
        <time>2012-04-19T09:00:51Z</time>
      </trkpt>
      <trkpt lat="48.21807" lon="-3.68577">
        <ele>60.700317382812</ele>
        <time>2012-04-19T09:01:14Z</time>
      </trkpt>
      <trkpt lat="48.2181" lon="-3.68587">
        <ele>60.2197265625</ele>
        <time>2012-04-19T09:01:16Z</time>
      </trkpt>
      <trkpt lat="48.21816" lon="-3.68603">
        <ele>58.777709960938</ele>
        <time>2012-04-19T09:01:20Z</time>
      </trkpt>
      <trkpt lat="48.21898" lon="-3.68675">
        <ele>57.335815429688</ele>
        <time>2012-04-19T09:01:43Z</time>
      </trkpt>
      <trkpt lat="48.2197" lon="-3.68724">
        <ele>56.855102539062</ele>
        <time>2012-04-19T09:02:03Z</time>
      </trkpt>
      <trkpt lat="48.22018" lon="-3.68757">
        <ele>56.37451171875</ele>
        <time>2012-04-19T09:02:16Z</time>
      </trkpt>
      <trkpt lat="48.22075" lon="-3.6879">
        <ele>56.37451171875</ele>
        <time>2012-04-19T09:02:34Z</time>
      </trkpt>
      <trkpt lat="48.22084" lon="-3.68795">
        <ele>56.855102539062</ele>
        <time>2012-04-19T09:02:47Z</time>
      </trkpt>
      <trkpt lat="48.22094" lon="-3.688">
        <ele>52.529174804688</ele>
        <time>2012-04-19T09:07:27Z</time>
      </trkpt>
      <trkpt lat="48.22094" lon="-3.688">
        <ele>52.048583984375</ele>
        <time>2012-04-19T09:12:17Z</time>
      </trkpt>
      <trkpt lat="48.22115" lon="-3.6881">
        <ele>51.56787109375</ele>
        <time>2012-04-19T09:13:46Z</time>
      </trkpt>
      <trkpt lat="48.22183" lon="-3.68843">
        <ele>49.16455078125</ele>
        <time>2012-04-19T09:14:05Z</time>
      </trkpt>
      <trkpt lat="48.2227" lon="-3.68934">
        <ele>51.087158203125</ele>
        <time>2012-04-19T09:14:28Z</time>
      </trkpt>
      <trkpt lat="48.22283" lon="-3.68961">
        <ele>50.606567382812</ele>
        <time>2012-04-19T09:14:34Z</time>
      </trkpt>
      <trkpt lat="48.22289" lon="-3.68977">
        <ele>50.606567382812</ele>
        <time>2012-04-19T09:14:37Z</time>
      </trkpt>
      <trkpt lat="48.22295" lon="-3.68993">
        <ele>50.1259765625</ele>
        <time>2012-04-19T09:14:40Z</time>
      </trkpt>
      <trkpt lat="48.22333" lon="-3.69118">
        <ele>51.087158203125</ele>
        <time>2012-04-19T09:15:01Z</time>
      </trkpt>
      <trkpt lat="48.22361" lon="-3.69224">
        <ele>53.490478515625</ele>
        <time>2012-04-19T09:15:18Z</time>
      </trkpt>
      <trkpt lat="48.22371" lon="-3.69257">
        <ele>51.087158203125</ele>
        <time>2012-04-19T09:15:23Z</time>
      </trkpt>
      <trkpt lat="48.22424" lon="-3.69391">
        <ele>52.048583984375</ele>
        <time>2012-04-19T09:15:45Z</time>
      </trkpt>
      <trkpt lat="48.22452" lon="-3.6944">
        <ele>52.529174804688</ele>
        <time>2012-04-19T09:15:54Z</time>
      </trkpt>
      <trkpt lat="48.2248" lon="-3.69492">
        <ele>53.009765625</ele>
        <time>2012-04-19T09:16:04Z</time>
      </trkpt>
      <trkpt lat="48.2251" lon="-3.69581">
        <ele>53.97119140625</ele>
        <time>2012-04-19T09:16:21Z</time>
      </trkpt>
      <trkpt lat="48.22511" lon="-3.69586">
        <ele>53.97119140625</ele>
        <time>2012-04-19T09:16:22Z</time>
      </trkpt>
      <trkpt lat="48.22513" lon="-3.69608">
        <ele>54.932373046875</ele>
        <time>2012-04-19T09:16:26Z</time>
      </trkpt>
      <trkpt lat="48.22503" lon="-3.69685">
        <ele>65.0263671875</ele>
        <time>2012-04-19T09:16:40Z</time>
      </trkpt>
      <trkpt lat="48.22502" lon="-3.6969">
        <ele>65.507080078125</ele>
        <time>2012-04-19T09:16:41Z</time>
      </trkpt>
      <trkpt lat="48.22451" lon="-3.69754">
        <ele>70.794189453125</ele>
        <time>2012-04-19T09:16:55Z</time>
      </trkpt>
      <trkpt lat="48.22447" lon="-3.69757">
        <ele>71.755493164062</ele>
        <time>2012-04-19T09:16:56Z</time>
      </trkpt>
      <trkpt lat="48.22417" lon="-3.69781">
        <ele>72.716918945312</ele>
        <time>2012-04-19T09:17:04Z</time>
      </trkpt>
      <trkpt lat="48.22334" lon="-3.69817">
        <ele>73.197631835938</ele>
        <time>2012-04-19T09:17:23Z</time>
      </trkpt>
      <trkpt lat="48.22249" lon="-3.69852">
        <ele>67.4296875</ele>
        <time>2012-04-19T09:17:43Z</time>
      </trkpt>
      <trkpt lat="48.2217" lon="-3.69879">
        <ele>65.507080078125</ele>
        <time>2012-04-19T09:18:03Z</time>
      </trkpt>
      <trkpt lat="48.22159" lon="-3.69889">
        <ele>65.507080078125</ele>
        <time>2012-04-19T09:18:06Z</time>
      </trkpt>
      <trkpt lat="48.22141" lon="-3.69907">
        <ele>64.065063476562</ele>
        <time>2012-04-19T09:18:11Z</time>
      </trkpt>
      <trkpt lat="48.22083" lon="-3.70023">
        <ele>62.142333984375</ele>
        <time>2012-04-19T09:18:32Z</time>
      </trkpt>
      <trkpt lat="48.22065" lon="-3.70065">
        <ele>61.181030273438</ele>
        <time>2012-04-19T09:18:44Z</time>
      </trkpt>
      <trkpt lat="48.22065" lon="-3.70065">
        <ele>61.181030273438</ele>
        <time>2012-04-19T09:18:59Z</time>
      </trkpt>
      <trkpt lat="48.22065" lon="-3.70065">
        <ele>58.777709960938</ele>
        <time>2012-04-19T09:31:14Z</time>
      </trkpt>
      <trkpt lat="48.22065" lon="-3.70065">
        <ele>57.335815429688</ele>
        <time>2012-04-19T09:31:30Z</time>
      </trkpt>
      <trkpt lat="48.22065" lon="-3.70065">
        <ele>55.4130859375</ele>
        <time>2012-04-19T09:32:04Z</time>
      </trkpt>
      <trkpt lat="48.22065" lon="-3.70065">
        <ele>51.56787109375</ele>
        <time>2012-04-19T09:32:29Z</time>
      </trkpt>
      <trkpt lat="48.22065" lon="-3.70065">
        <ele>51.56787109375</ele>
        <time>2012-04-19T09:32:32Z</time>
      </trkpt>
      <trkpt lat="48.22042" lon="-3.70118">
        <ele>50.606567382812</ele>
        <time>2012-04-19T09:32:44Z</time>
      </trkpt>
      <trkpt lat="48.22031" lon="-3.70142">
        <ele>50.1259765625</ele>
        <time>2012-04-19T09:32:49Z</time>
      </trkpt>
      <trkpt lat="48.21977" lon="-3.70231">
        <ele>50.1259765625</ele>
        <time>2012-04-19T09:33:10Z</time>
      </trkpt>
      <trkpt lat="48.21935" lon="-3.703">
        <ele>51.56787109375</ele>
        <time>2012-04-19T09:33:27Z</time>
      </trkpt>
      <trkpt lat="48.21925" lon="-3.70317">
        <ele>53.490478515625</ele>
        <time>2012-04-19T09:33:33Z</time>
      </trkpt>
      <trkpt lat="48.21917" lon="-3.70303">
        <ele>53.490478515625</ele>
        <time>2012-04-19T09:33:41Z</time>
      </trkpt>
      <trkpt lat="48.21884" lon="-3.70259">
        <ele>52.048583984375</ele>
        <time>2012-04-19T09:33:57Z</time>
      </trkpt>
      <trkpt lat="48.21856" lon="-3.70281">
        <ele>51.56787109375</ele>
        <time>2012-04-19T09:34:06Z</time>
      </trkpt>
      <trkpt lat="48.21845" lon="-3.70318">
        <ele>51.56787109375</ele>
        <time>2012-04-19T09:34:15Z</time>
      </trkpt>
      <trkpt lat="48.21832" lon="-3.70366">
        <ele>52.529174804688</ele>
        <time>2012-04-19T09:34:31Z</time>
      </trkpt>
      <trkpt lat="48.21829" lon="-3.70378">
        <ele>52.529174804688</ele>
        <time>2012-04-19T09:34:35Z</time>
      </trkpt>
      <trkpt lat="48.21823" lon="-3.70403">
        <ele>53.490478515625</ele>
        <time>2012-04-19T09:34:43Z</time>
      </trkpt>
      <trkpt lat="48.21822" lon="-3.70408">
        <ele>52.529174804688</ele>
        <time>2012-04-19T09:34:46Z</time>
      </trkpt>
      <trkpt lat="48.21818" lon="-3.70445">
        <ele>47.722534179688</ele>
        <time>2012-04-19T09:34:50Z</time>
      </trkpt>
      <trkpt lat="48.21795" lon="-3.70451">
        <ele>48.203369140625</ele>
        <time>2012-04-19T09:34:54Z</time>
      </trkpt>
      <trkpt lat="48.21766" lon="-3.70458">
        <ele>48.683959960938</ele>
        <time>2012-04-19T09:35:01Z</time>
      </trkpt>
      <trkpt lat="48.21715" lon="-3.70495">
        <ele>48.203369140625</ele>
        <time>2012-04-19T09:35:16Z</time>
      </trkpt>
      <trkpt lat="48.21705" lon="-3.70505">
        <ele>48.683959960938</ele>
        <time>2012-04-19T09:35:19Z</time>
      </trkpt>
      <trkpt lat="48.2165" lon="-3.70593">
        <ele>49.645263671875</ele>
        <time>2012-04-19T09:35:39Z</time>
      </trkpt>
      <trkpt lat="48.21621" lon="-3.70685">
        <ele>50.606567382812</ele>
        <time>2012-04-19T09:35:56Z</time>
      </trkpt>
      <trkpt lat="48.216" lon="-3.70764">
        <ele>51.087158203125</ele>
        <time>2012-04-19T09:36:10Z</time>
      </trkpt>
      <trkpt lat="48.21589" lon="-3.70814">
        <ele>52.048583984375</ele>
        <time>2012-04-19T09:36:19Z</time>
      </trkpt>
      <trkpt lat="48.21583" lon="-3.70892">
        <ele>52.048583984375</ele>
        <time>2012-04-19T09:36:32Z</time>
      </trkpt>
      <trkpt lat="48.21575" lon="-3.70992">
        <ele>55.893798828125</ele>
        <time>2012-04-19T09:36:49Z</time>
      </trkpt>
      <trkpt lat="48.21569" lon="-3.7106">
        <ele>52.529174804688</ele>
        <time>2012-04-19T09:37:01Z</time>
      </trkpt>
      <trkpt lat="48.21554" lon="-3.71185">
        <ele>50.606567382812</ele>
        <time>2012-04-19T09:37:22Z</time>
      </trkpt>
      <trkpt lat="48.21548" lon="-3.71263">
        <ele>51.56787109375</ele>
        <time>2012-04-19T09:37:35Z</time>
      </trkpt>
      <trkpt lat="48.21542" lon="-3.71367">
        <ele>51.087158203125</ele>
        <time>2012-04-19T09:37:52Z</time>
      </trkpt>
      <trkpt lat="48.21541" lon="-3.71447">
        <ele>51.56787109375</ele>
        <time>2012-04-19T09:38:05Z</time>
      </trkpt>
      <trkpt lat="48.2155" lon="-3.71573">
        <ele>51.56787109375</ele>
        <time>2012-04-19T09:38:26Z</time>
      </trkpt>
      <trkpt lat="48.21563" lon="-3.71677">
        <ele>51.087158203125</ele>
        <time>2012-04-19T09:38:43Z</time>
      </trkpt>
      <trkpt lat="48.21585" lon="-3.71748">
        <ele>52.048583984375</ele>
        <time>2012-04-19T09:38:56Z</time>
      </trkpt>
      <trkpt lat="48.21626" lon="-3.71836">
        <ele>52.048583984375</ele>
        <time>2012-04-19T09:39:13Z</time>
      </trkpt>
      <trkpt lat="48.21663" lon="-3.71914">
        <ele>51.087158203125</ele>
        <time>2012-04-19T09:39:29Z</time>
      </trkpt>
      <trkpt lat="48.2171" lon="-3.72014">
        <ele>50.1259765625</ele>
        <time>2012-04-19T09:39:49Z</time>
      </trkpt>
      <trkpt lat="48.2178" lon="-3.72095">
        <ele>50.1259765625</ele>
        <time>2012-04-19T09:40:09Z</time>
      </trkpt>
      <trkpt lat="48.21867" lon="-3.72189">
        <ele>49.645263671875</ele>
        <time>2012-04-19T09:40:36Z</time>
      </trkpt>
      <trkpt lat="48.21924" lon="-3.72254">
        <ele>49.16455078125</ele>
        <time>2012-04-19T09:40:55Z</time>
      </trkpt>
      <trkpt lat="48.21988" lon="-3.72344">
        <ele>48.203369140625</ele>
        <time>2012-04-19T09:41:19Z</time>
      </trkpt>
      <trkpt lat="48.22041" lon="-3.72429">
        <ele>48.203369140625</ele>
        <time>2012-04-19T09:41:41Z</time>
      </trkpt>
      <trkpt lat="48.2207" lon="-3.7249">
        <ele>48.203369140625</ele>
        <time>2012-04-19T09:41:55Z</time>
      </trkpt>
      <trkpt lat="48.22089" lon="-3.72554">
        <ele>47.722534179688</ele>
        <time>2012-04-19T09:42:09Z</time>
      </trkpt>
      <trkpt lat="48.22116" lon="-3.72659">
        <ele>47.241821289062</ele>
        <time>2012-04-19T09:42:30Z</time>
      </trkpt>
      <trkpt lat="48.22126" lon="-3.72759">
        <ele>47.722534179688</ele>
        <time>2012-04-19T09:42:49Z</time>
      </trkpt>
      <trkpt lat="48.22154" lon="-3.7289">
        <ele>46.280639648438</ele>
        <time>2012-04-19T09:43:11Z</time>
      </trkpt>
      <trkpt lat="48.22155" lon="-3.73001">
        <ele>44.358032226562</ele>
        <time>2012-04-19T09:43:31Z</time>
      </trkpt>
      <trkpt lat="48.22147" lon="-3.73094">
        <ele>46.280639648438</ele>
        <time>2012-04-19T09:43:48Z</time>
      </trkpt>
      <trkpt lat="48.22127" lon="-3.73241">
        <ele>45.799926757812</ele>
        <time>2012-04-19T09:44:14Z</time>
      </trkpt>
      <trkpt lat="48.22093" lon="-3.73352">
        <ele>46.280639648438</ele>
        <time>2012-04-19T09:44:38Z</time>
      </trkpt>
      <trkpt lat="48.22061" lon="-3.73482">
        <ele>46.280639648438</ele>
        <time>2012-04-19T09:45:02Z</time>
      </trkpt>
      <trkpt lat="48.22029" lon="-3.73572">
        <ele>46.76123046875</ele>
        <time>2012-04-19T09:45:20Z</time>
      </trkpt>
      <trkpt lat="48.21989" lon="-3.73654">
        <ele>46.76123046875</ele>
        <time>2012-04-19T09:45:41Z</time>
      </trkpt>
      <trkpt lat="48.21929" lon="-3.73737">
        <ele>46.76123046875</ele>
        <time>2012-04-19T09:46:01Z</time>
      </trkpt>
      <trkpt lat="48.21875" lon="-3.73782">
        <ele>47.241821289062</ele>
        <time>2012-04-19T09:46:18Z</time>
      </trkpt>
      <trkpt lat="48.21814" lon="-3.73824">
        <ele>47.241821289062</ele>
        <time>2012-04-19T09:46:36Z</time>
      </trkpt>
      <trkpt lat="48.21729" lon="-3.73891">
        <ele>46.76123046875</ele>
        <time>2012-04-19T09:47:01Z</time>
      </trkpt>
      <trkpt lat="48.21662" lon="-3.73944">
        <ele>46.76123046875</ele>
        <time>2012-04-19T09:47:21Z</time>
      </trkpt>
      <trkpt lat="48.21603" lon="-3.7399">
        <ele>47.241821289062</ele>
        <time>2012-04-19T09:47:42Z</time>
      </trkpt>
      <trkpt lat="48.21492" lon="-3.74036">
        <ele>46.76123046875</ele>
        <time>2012-04-19T09:48:06Z</time>
      </trkpt>
      <trkpt lat="48.21394" lon="-3.74048">
        <ele>44.838623046875</ele>
        <time>2012-04-19T09:48:30Z</time>
      </trkpt>
      <trkpt lat="48.21325" lon="-3.74028">
        <ele>44.838623046875</ele>
        <time>2012-04-19T09:48:48Z</time>
      </trkpt>
      <trkpt lat="48.21302" lon="-3.74019">
        <ele>45.799926757812</ele>
        <time>2012-04-19T09:48:57Z</time>
      </trkpt>
      <trkpt lat="48.21266" lon="-3.74005">
        <ele>46.76123046875</ele>
        <time>2012-04-19T09:49:06Z</time>
      </trkpt>
      <trkpt lat="48.21227" lon="-3.73969">
        <ele>47.241821289062</ele>
        <time>2012-04-19T09:49:16Z</time>
      </trkpt>
      <trkpt lat="48.2122" lon="-3.73962">
        <ele>47.722534179688</ele>
        <time>2012-04-19T09:49:19Z</time>
      </trkpt>
      <trkpt lat="48.21193" lon="-3.73933">
        <ele>50.1259765625</ele>
        <time>2012-04-19T09:49:29Z</time>
      </trkpt>
      <trkpt lat="48.21158" lon="-3.73898">
        <ele>50.606567382812</ele>
        <time>2012-04-19T09:49:39Z</time>
      </trkpt>
      <trkpt lat="48.21126" lon="-3.73864">
        <ele>48.203369140625</ele>
        <time>2012-04-19T09:49:48Z</time>
      </trkpt>
      <trkpt lat="48.21078" lon="-3.73806">
        <ele>45.319213867188</ele>
        <time>2012-04-19T09:50:00Z</time>
      </trkpt>
      <trkpt lat="48.20997" lon="-3.73727">
        <ele>41.473999023438</ele>
        <time>2012-04-19T09:50:22Z</time>
      </trkpt>
      <trkpt lat="48.20963" lon="-3.73695">
        <ele>40.512817382812</ele>
        <time>2012-04-19T09:50:32Z</time>
      </trkpt>
      <trkpt lat="48.20924" lon="-3.73658">
        <ele>40.993408203125</ele>
        <time>2012-04-19T09:50:42Z</time>
      </trkpt>
      <trkpt lat="48.20878" lon="-3.73614">
        <ele>40.512817382812</ele>
        <time>2012-04-19T09:50:55Z</time>
      </trkpt>
      <trkpt lat="48.20825" lon="-3.73565">
        <ele>40.993408203125</ele>
        <time>2012-04-19T09:51:11Z</time>
      </trkpt>
      <trkpt lat="48.20795" lon="-3.73536">
        <ele>41.473999023438</ele>
        <time>2012-04-19T09:51:20Z</time>
      </trkpt>
      <trkpt lat="48.20753" lon="-3.73502">
        <ele>41.954711914062</ele>
        <time>2012-04-19T09:51:32Z</time>
      </trkpt>
      <trkpt lat="48.2069" lon="-3.7346">
        <ele>42.435424804688</ele>
        <time>2012-04-19T09:51:49Z</time>
      </trkpt>
      <trkpt lat="48.20593" lon="-3.73416">
        <ele>42.435424804688</ele>
        <time>2012-04-19T09:52:13Z</time>
      </trkpt>
      <trkpt lat="48.20454" lon="-3.73382">
        <ele>42.916015625</ele>
        <time>2012-04-19T09:52:47Z</time>
      </trkpt>
      <trkpt lat="48.20368" lon="-3.73389">
        <ele>43.396606445312</ele>
        <time>2012-04-19T09:53:08Z</time>
      </trkpt>
      <trkpt lat="48.20319" lon="-3.7343">
        <ele>42.916015625</ele>
        <time>2012-04-19T09:53:24Z</time>
      </trkpt>
      <trkpt lat="48.20265" lon="-3.73521">
        <ele>40.993408203125</ele>
        <time>2012-04-19T09:53:47Z</time>
      </trkpt>
      <trkpt lat="48.20229" lon="-3.73618">
        <ele>40.512817382812</ele>
        <time>2012-04-19T09:54:06Z</time>
      </trkpt>
      <trkpt lat="48.20217" lon="-3.73716">
        <ele>40.512817382812</ele>
        <time>2012-04-19T09:54:23Z</time>
      </trkpt>
      <trkpt lat="48.20217" lon="-3.73835">
        <ele>40.032104492188</ele>
        <time>2012-04-19T09:54:43Z</time>
      </trkpt>
      <trkpt lat="48.20244" lon="-3.73956">
        <ele>38.109375</ele>
        <time>2012-04-19T09:55:04Z</time>
      </trkpt>
      <trkpt lat="48.20277" lon="-3.74022">
        <ele>38.109375</ele>
        <time>2012-04-19T09:55:19Z</time>
      </trkpt>
      <trkpt lat="48.20328" lon="-3.74091">
        <ele>39.070678710938</ele>
        <time>2012-04-19T09:55:37Z</time>
      </trkpt>
      <trkpt lat="48.20405" lon="-3.74169">
        <ele>39.070678710938</ele>
        <time>2012-04-19T09:56:03Z</time>
      </trkpt>
      <trkpt lat="48.20491" lon="-3.74251">
        <ele>39.070678710938</ele>
        <time>2012-04-19T09:56:29Z</time>
      </trkpt>
      <trkpt lat="48.20562" lon="-3.74319">
        <ele>38.109375</ele>
        <time>2012-04-19T09:56:51Z</time>
      </trkpt>
      <trkpt lat="48.20575" lon="-3.74339">
        <ele>38.590087890625</ele>
        <time>2012-04-19T09:56:57Z</time>
      </trkpt>
      <trkpt lat="48.20619" lon="-3.74407">
        <ele>38.109375</ele>
        <time>2012-04-19T09:57:14Z</time>
      </trkpt>
      <trkpt lat="48.20668" lon="-3.74505">
        <ele>39.55126953125</ele>
        <time>2012-04-19T09:57:35Z</time>
      </trkpt>
      <trkpt lat="48.20709" lon="-3.74604">
        <ele>43.877319335938</ele>
        <time>2012-04-19T09:57:56Z</time>
      </trkpt>
      <trkpt lat="48.20735" lon="-3.74672">
        <ele>47.241821289062</ele>
        <time>2012-04-19T09:58:11Z</time>
      </trkpt>
      <trkpt lat="48.20767" lon="-3.74796">
        <ele>46.280639648438</ele>
        <time>2012-04-19T09:58:33Z</time>
      </trkpt>
      <trkpt lat="48.20783" lon="-3.74867">
        <ele>46.76123046875</ele>
        <time>2012-04-19T09:58:47Z</time>
      </trkpt>
      <trkpt lat="48.20807" lon="-3.74992">
        <ele>45.319213867188</ele>
        <time>2012-04-19T09:59:11Z</time>
      </trkpt>
      <trkpt lat="48.20821" lon="-3.75114">
        <ele>43.396606445312</ele>
        <time>2012-04-19T09:59:32Z</time>
      </trkpt>
      <trkpt lat="48.20818" lon="-3.75225">
        <ele>42.435424804688</ele>
        <time>2012-04-19T09:59:53Z</time>
      </trkpt>
      <trkpt lat="48.20797" lon="-3.75322">
        <ele>41.954711914062</ele>
        <time>2012-04-19T10:00:13Z</time>
      </trkpt>
      <trkpt lat="48.20753" lon="-3.75404">
        <ele>40.512817382812</ele>
        <time>2012-04-19T10:00:32Z</time>
      </trkpt>
      <trkpt lat="48.20691" lon="-3.7545">
        <ele>39.55126953125</ele>
        <time>2012-04-19T10:00:51Z</time>
      </trkpt>
      <trkpt lat="48.20578" lon="-3.75526">
        <ele>40.032104492188</ele>
        <time>2012-04-19T10:01:22Z</time>
      </trkpt>
      <trkpt lat="48.20487" lon="-3.75586">
        <ele>39.070678710938</ele>
        <time>2012-04-19T10:01:47Z</time>
      </trkpt>
      <trkpt lat="48.20425" lon="-3.75646">
        <ele>37.628662109375</ele>
        <time>2012-04-19T10:02:08Z</time>
      </trkpt>
      <trkpt lat="48.20342" lon="-3.75728">
        <ele>36.186767578125</ele>
        <time>2012-04-19T10:02:34Z</time>
      </trkpt>
      <trkpt lat="48.2029" lon="-3.75758">
        <ele>37.628662109375</ele>
        <time>2012-04-19T10:02:50Z</time>
      </trkpt>
      <trkpt lat="48.20197" lon="-3.75811">
        <ele>38.109375</ele>
        <time>2012-04-19T10:03:17Z</time>
      </trkpt>
      <trkpt lat="48.20137" lon="-3.75845">
        <ele>39.55126953125</ele>
        <time>2012-04-19T10:03:35Z</time>
      </trkpt>
      <trkpt lat="48.2005" lon="-3.75894">
        <ele>39.55126953125</ele>
        <time>2012-04-19T10:04:00Z</time>
      </trkpt>
      <trkpt lat="48.19982" lon="-3.75933">
        <ele>40.032104492188</ele>
        <time>2012-04-19T10:04:19Z</time>
      </trkpt>
      <trkpt lat="48.19975" lon="-3.75937">
        <ele>39.55126953125</ele>
        <time>2012-04-19T10:04:21Z</time>
      </trkpt>
      <trkpt lat="48.1993" lon="-3.75963">
        <ele>39.070678710938</ele>
        <time>2012-04-19T10:04:32Z</time>
      </trkpt>
      <trkpt lat="48.19854" lon="-3.76005">
        <ele>38.590087890625</ele>
        <time>2012-04-19T10:04:52Z</time>
      </trkpt>
      <trkpt lat="48.19783" lon="-3.76049">
        <ele>39.070678710938</ele>
        <time>2012-04-19T10:05:11Z</time>
      </trkpt>
      <trkpt lat="48.19715" lon="-3.76097">
        <ele>39.55126953125</ele>
        <time>2012-04-19T10:05:31Z</time>
      </trkpt>
      <trkpt lat="48.19624" lon="-3.76159">
        <ele>39.070678710938</ele>
        <time>2012-04-19T10:05:56Z</time>
      </trkpt>
      <trkpt lat="48.19514" lon="-3.76235">
        <ele>38.590087890625</ele>
        <time>2012-04-19T10:06:24Z</time>
      </trkpt>
      <trkpt lat="48.1941" lon="-3.76286">
        <ele>37.628662109375</ele>
        <time>2012-04-19T10:06:50Z</time>
      </trkpt>
      <trkpt lat="48.19319" lon="-3.76305">
        <ele>37.628662109375</ele>
        <time>2012-04-19T10:07:11Z</time>
      </trkpt>
      <trkpt lat="48.19301" lon="-3.76303">
        <ele>37.148071289062</ele>
        <time>2012-04-19T10:07:15Z</time>
      </trkpt>
      <trkpt lat="48.19239" lon="-3.76283">
        <ele>36.66748046875</ele>
        <time>2012-04-19T10:07:29Z</time>
      </trkpt>
      <trkpt lat="48.19231" lon="-3.76277">
        <ele>37.148071289062</ele>
        <time>2012-04-19T10:07:31Z</time>
      </trkpt>
      <trkpt lat="48.19207" lon="-3.76259">
        <ele>37.628662109375</ele>
        <time>2012-04-19T10:07:37Z</time>
      </trkpt>
      <trkpt lat="48.19157" lon="-3.76193">
        <ele>37.148071289062</ele>
        <time>2012-04-19T10:07:53Z</time>
      </trkpt>
      <trkpt lat="48.19106" lon="-3.76113">
        <ele>35.7060546875</ele>
        <time>2012-04-19T10:08:11Z</time>
      </trkpt>
      <trkpt lat="48.19074" lon="-3.76056">
        <ele>36.186767578125</ele>
        <time>2012-04-19T10:08:22Z</time>
      </trkpt>
      <trkpt lat="48.19029" lon="-3.75974">
        <ele>36.186767578125</ele>
        <time>2012-04-19T10:08:40Z</time>
      </trkpt>
      <trkpt lat="48.18989" lon="-3.75902">
        <ele>36.186767578125</ele>
        <time>2012-04-19T10:08:57Z</time>
      </trkpt>
      <trkpt lat="48.18959" lon="-3.75822">
        <ele>37.628662109375</ele>
        <time>2012-04-19T10:09:11Z</time>
      </trkpt>
      <trkpt lat="48.18928" lon="-3.75729">
        <ele>36.66748046875</ele>
        <time>2012-04-19T10:09:28Z</time>
      </trkpt>
      <trkpt lat="48.18918" lon="-3.75698">
        <ele>36.66748046875</ele>
        <time>2012-04-19T10:09:34Z</time>
      </trkpt>
      <trkpt lat="48.18899" lon="-3.75643">
        <ele>34.26416015625</ele>
        <time>2012-04-19T10:09:45Z</time>
      </trkpt>
      <trkpt lat="48.18876" lon="-3.75577">
        <ele>36.186767578125</ele>
        <time>2012-04-19T10:09:57Z</time>
      </trkpt>
      <trkpt lat="48.1886" lon="-3.75535">
        <ele>36.66748046875</ele>
        <time>2012-04-19T10:10:05Z</time>
      </trkpt>
      <trkpt lat="48.18851" lon="-3.75513">
        <ele>37.628662109375</ele>
        <time>2012-04-19T10:10:09Z</time>
      </trkpt>
      <trkpt lat="48.18811" lon="-3.75416">
        <ele>38.109375</ele>
        <time>2012-04-19T10:10:28Z</time>
      </trkpt>
      <trkpt lat="48.18805" lon="-3.75403">
        <ele>37.628662109375</ele>
        <time>2012-04-19T10:10:31Z</time>
      </trkpt>
      <trkpt lat="48.18777" lon="-3.75333">
        <ele>37.628662109375</ele>
        <time>2012-04-19T10:10:45Z</time>
      </trkpt>
      <trkpt lat="48.18741" lon="-3.75268">
        <ele>40.032104492188</ele>
        <time>2012-04-19T10:11:00Z</time>
      </trkpt>
      <trkpt lat="48.18665" lon="-3.7519">
        <ele>37.148071289062</ele>
        <time>2012-04-19T10:11:26Z</time>
      </trkpt>
      <trkpt lat="48.18648" lon="-3.75175">
        <ele>37.148071289062</ele>
        <time>2012-04-19T10:11:38Z</time>
      </trkpt>
      <trkpt lat="48.18646" lon="-3.75174">
        <ele>37.148071289062</ele>
        <time>2012-04-19T10:13:01Z</time>
      </trkpt>
      <trkpt lat="48.18613" lon="-3.75145">
        <ele>37.148071289062</ele>
        <time>2012-04-19T10:13:14Z</time>
      </trkpt>
      <trkpt lat="48.18559" lon="-3.75125">
        <ele>36.186767578125</ele>
        <time>2012-04-19T10:13:28Z</time>
      </trkpt>
      <trkpt lat="48.18495" lon="-3.75137">
        <ele>37.148071289062</ele>
        <time>2012-04-19T10:13:45Z</time>
      </trkpt>
      <trkpt lat="48.18374" lon="-3.75176">
        <ele>37.148071289062</ele>
        <time>2012-04-19T10:14:16Z</time>
      </trkpt>
      <trkpt lat="48.18286" lon="-3.75221">
        <ele>36.186767578125</ele>
        <time>2012-04-19T10:14:39Z</time>
      </trkpt>
      <trkpt lat="48.18203" lon="-3.75279">
        <ele>36.186767578125</ele>
        <time>2012-04-19T10:15:02Z</time>
      </trkpt>
      <trkpt lat="48.1813" lon="-3.75386">
        <ele>37.628662109375</ele>
        <time>2012-04-19T10:15:29Z</time>
      </trkpt>
      <trkpt lat="48.18113" lon="-3.75444">
        <ele>42.435424804688</ele>
        <time>2012-04-19T10:15:46Z</time>
      </trkpt>
      <trkpt lat="48.1811" lon="-3.75453">
        <ele>42.916015625</ele>
        <time>2012-04-19T10:15:52Z</time>
      </trkpt>
      <trkpt lat="48.18067" lon="-3.75542">
        <ele>40.032104492188</ele>
        <time>2012-04-19T10:16:04Z</time>
      </trkpt>
      <trkpt lat="48.18017" lon="-3.75646">
        <ele>38.109375</ele>
        <time>2012-04-19T10:16:23Z</time>
      </trkpt>
      <trkpt lat="48.17964" lon="-3.75765">
        <ele>38.109375</ele>
        <time>2012-04-19T10:16:45Z</time>
      </trkpt>
      <trkpt lat="48.17936" lon="-3.75864">
        <ele>39.070678710938</ele>
        <time>2012-04-19T10:17:03Z</time>
      </trkpt>
      <trkpt lat="48.17911" lon="-3.75964">
        <ele>38.109375</ele>
        <time>2012-04-19T10:17:20Z</time>
      </trkpt>
      <trkpt lat="48.17897" lon="-3.7602">
        <ele>37.628662109375</ele>
        <time>2012-04-19T10:17:30Z</time>
      </trkpt>
      <trkpt lat="48.17881" lon="-3.76086">
        <ele>38.109375</ele>
        <time>2012-04-19T10:17:41Z</time>
      </trkpt>
      <trkpt lat="48.17842" lon="-3.76235">
        <ele>39.070678710938</ele>
        <time>2012-04-19T10:18:06Z</time>
      </trkpt>
      <trkpt lat="48.17802" lon="-3.76389">
        <ele>39.55126953125</ele>
        <time>2012-04-19T10:18:31Z</time>
      </trkpt>
      <trkpt lat="48.17759" lon="-3.76506">
        <ele>40.512817382812</ele>
        <time>2012-04-19T10:18:53Z</time>
      </trkpt>
      <trkpt lat="48.17725" lon="-3.766">
        <ele>40.032104492188</ele>
        <time>2012-04-19T10:19:11Z</time>
      </trkpt>
      <trkpt lat="48.1769" lon="-3.7671">
        <ele>40.993408203125</ele>
        <time>2012-04-19T10:19:31Z</time>
      </trkpt>
      <trkpt lat="48.17628" lon="-3.76849">
        <ele>38.590087890625</ele>
        <time>2012-04-19T10:19:58Z</time>
      </trkpt>
      <trkpt lat="48.17576" lon="-3.76943">
        <ele>38.109375</ele>
        <time>2012-04-19T10:20:19Z</time>
      </trkpt>
      <trkpt lat="48.17534" lon="-3.7701">
        <ele>39.55126953125</ele>
        <time>2012-04-19T10:20:36Z</time>
      </trkpt>
      <trkpt lat="48.17481" lon="-3.77088">
        <ele>37.148071289062</ele>
        <time>2012-04-19T10:20:56Z</time>
      </trkpt>
      <trkpt lat="48.17429" lon="-3.77163">
        <ele>32.822265625</ele>
        <time>2012-04-19T10:21:14Z</time>
      </trkpt>
      <trkpt lat="48.17348" lon="-3.77277">
        <ele>34.744873046875</ele>
        <time>2012-04-19T10:21:42Z</time>
      </trkpt>
      <trkpt lat="48.17302" lon="-3.77333">
        <ele>35.7060546875</ele>
        <time>2012-04-19T10:21:58Z</time>
      </trkpt>
      <trkpt lat="48.17232" lon="-3.77413">
        <ele>37.148071289062</ele>
        <time>2012-04-19T10:22:21Z</time>
      </trkpt>
      <trkpt lat="48.17176" lon="-3.77476">
        <ele>38.109375</ele>
        <time>2012-04-19T10:22:39Z</time>
      </trkpt>
      <trkpt lat="48.17145" lon="-3.77532">
        <ele>37.628662109375</ele>
        <time>2012-04-19T10:22:56Z</time>
      </trkpt>
      <trkpt lat="48.17145" lon="-3.77532">
        <ele>37.148071289062</ele>
        <time>2012-04-19T10:23:00Z</time>
      </trkpt>
      <trkpt lat="48.17125" lon="-3.77581">
        <ele>37.148071289062</ele>
        <time>2012-04-19T10:23:13Z</time>
      </trkpt>
      <trkpt lat="48.17123" lon="-3.77586">
        <ele>37.148071289062</ele>
        <time>2012-04-19T10:23:15Z</time>
      </trkpt>
      <trkpt lat="48.17123" lon="-3.77588">
        <ele>39.070678710938</ele>
        <time>2012-04-19T10:23:30Z</time>
      </trkpt>
      <trkpt lat="48.17123" lon="-3.77588">
        <ele>38.590087890625</ele>
        <time>2012-04-19T10:24:07Z</time>
      </trkpt>
      <trkpt lat="48.17123" lon="-3.77588">
        <ele>36.66748046875</ele>
        <time>2012-04-19T10:24:45Z</time>
      </trkpt>
      <trkpt lat="48.17123" lon="-3.77588">
        <ele>36.186767578125</ele>
        <time>2012-04-19T10:25:55Z</time>
      </trkpt>
      <trkpt lat="48.17123" lon="-3.77585">
        <ele>36.186767578125</ele>
        <time>2012-04-19T10:26:01Z</time>
      </trkpt>
      <trkpt lat="48.17135" lon="-3.77558">
        <ele>34.26416015625</ele>
        <time>2012-04-19T10:26:14Z</time>
      </trkpt>
      <trkpt lat="48.17135" lon="-3.77558">
        <ele>32.822265625</ele>
        <time>2012-04-19T10:26:40Z</time>
      </trkpt>
      <trkpt lat="48.17135" lon="-3.77558">
        <ele>33.302856445312</ele>
        <time>2012-04-19T10:27:27Z</time>
      </trkpt>
      <trkpt lat="48.17135" lon="-3.77558">
        <ele>33.302856445312</ele>
        <time>2012-04-19T10:28:29Z</time>
      </trkpt>
      <trkpt lat="48.17135" lon="-3.77558">
        <ele>33.302856445312</ele>
        <time>2012-04-19T10:28:50Z</time>
      </trkpt>
    </trkseg>
  </trk>
</gpx>